AirNav   Air Wisconsin Up To $57,000 Bonus
 
 472 users online  

89TE Plaza Medical Center Heliport
Fort Worth, Texas, USA


FAA INFORMATION EFFECTIVE 16 JUNE 2022

Location

FAA Identifier: 89TE
Lat/Long: 32-44-09.3100N 097-20-46.4000W
32-44.155167N 097-20.773333W
32.7359194,-97.3462222
(estimated)
Elevation: 667 ft. / 203 m (estimated)
From city: 1 mile SW of FORT WORTH, TX
Time zone: UTC -5 (UTC -6 during Standard Time)
Zip code: 76104

Heliport Operations

Heliport use: Private use. Permission required prior to landing
Activation date: 10/2020
Control tower: no
ARTCC: FORT WORTH CENTER
FSS: FORT WORTH FLIGHT SERVICE STATION
Attendance: UNATNDD
Wind indicator: yes
Segmented circle: no

Heliport Communications

WX ASOS at FTW (5 nm N): PHONE 817-740-3346
WX AWOS-3PT at FWS (10 nm S): 120.025 (817-426-4172)
WX ASOS at GKY (13 nm E): 127.375 (817-557-0251)
WX AWOS-3P at GPM (15 nm E): 118.475 (972-606-1433)
WX ASOS at AFW (15 nm N): PHONE 817-491-6188
WX ASOS at DFW (18 nm NE): PHONE 972-615-2608

Heliport Services

Runway Information

Helipad H1

Dimensions: 53 x 53 ft. / 16 x 16 m
Surface: mats, in good condition
Latitude: 32-44.155167N
Longitude: 097-20.773333W
Elevation: 667.0 ft.
Traffic pattern: leftleft

Heliport Ownership and Management from official FAA records

Ownership: Privately-owned
Owner: MEDICAL CITY FORT WORTH
900 EIGHTH AVENUE
FORT WORTH, TX 76104
Phone 817-347-4571
Manager: JAY GRUBBS
900 EIGHTH AVENUE
FORT WORTH, TX 76104
Phone 817-347-4571

Instrument Procedures

There are no published instrument procedures at 89TE.

Some nearby airports with instrument procedures:

KFTW - Fort Worth Meacham International Airport (5 nm N)
KNFW - Fort Worth Naval Air Station JRB (Carswell Field) Airport (5 nm NW)
KFWS - Fort Worth Spinks Airport (10 nm S)
KGKY - Arlington Municipal Airport (13 nm E)
KGPM - Grand Prairie Municipal Airport (15 nm E)
KAFW - Fort Worth Alliance Airport (15 nm N)
50F - Bourland Field Airport (15 nm SW)
4T2 - Kenneth Copeland Airport (16 nm NW)
KWEA - Parker County Airport (17 nm W)
KDFW - Dallas-Fort Worth International Airport (18 nm NE)
 
Loc | Ops | Rwys | IFR | FBO | Links
Com | Nav | Svcs | Stats | Notes
Aerial photo
No photo
 
Airport distance calculator
Flying to Plaza Medical Center Heliport? Find the distance to fly.

From to 89TE

Sunrise and sunset
Times for 27-Jun-2022
 Local
(UTC-5)
 Zulu
(UTC)
Morning civil twilight05:5610:56
Sunrise06:2511:25
Sunset20:4001:40
Evening civil twilight21:0902:09

Current date and time
Zulu (UTC)  27-Jun-2022 06:10:26
Local (UTC-5)  27-Jun-2022 01:10:26
 
METAR
KNFW 
6nm W 
270452Z AUTO 01011G19KT 10SM CLR A3016 RMK AO2 SLP197 $
KFTW 
6nm N 
270553Z 03015G24KT 10SM CLR 27/18 A3015 RMK AO2 SLP200 T02670183 10350 20267 403830256 51017
KFWS 
10nm S 
270555Z AUTO 01009KT 10SM CLR 27/20 A3017 RMK AO2 T02700198
KGKY 
13nm E 
270553Z AUTO 01014G19KT 10SM CLR 28/19 A3015 RMK AO2 SLP198 60053 T02830194 10372 20244 403940211 51021
KAFW 
14nm N 
270553Z 03012KT 10SM FEW120 SCT250 26/17 A3016 RMK AO2 SLP195 T02610167 10356 20261 403830261 51017
KGPM 
15nm E 
270555Z AUTO 02008KT 10SM CLR 28/19 A3016 RMK AO2 60025 T02760185 10363 20276 403900252
KDFW 
19nm NE 
270553Z 03015G21KT 10SM FEW100 SCT250 27/18 A3015 RMK AO2 SLP197 T02720178 10356 20272 403830256 51019
TAF
KNFW 
6nm W 
2623/2723 02013G18KT 9999 VCTS SCT030 BKN090CB QNH3002INS TEMPO 2718/2721 03014G24KT 4800 TSRA BKN030CB BKN060 BKN130 BECMG 2720/2722 05010G20KT 9999 NSW SCT030 SCT250 QNH3001INS AUTOMATED SENSOR METWATCH 2623 TIL 2711 T34/2701Z T23/2711Z FN00251
KFTW 
6nm N 
270520Z 2706/2806 03015KT P6SM FEW120 SCT250 FM271300 04012G22KT P6SM SCT025 BKN045 TEMPO 2714/2717 BKN025 FM280000 04011KT P6SM SCT050 BKN200 FM280500 07007KT P6SM FEW060 SCT200
KGKY 
13nm E 
270520Z 2706/2806 01015KT P6SM FEW120 SCT250 FM271400 03012G22KT P6SM SCT022 BKN040 TEMPO 2714/2718 BKN022 FM280000 03011KT P6SM SCT050 BKN200 FM280500 06007KT P6SM FEW060 SCT200
KAFW 
14nm N 
270520Z 2706/2806 03015KT P6SM FEW120 SCT250 FM271300 04012G22KT P6SM SCT025 BKN045 TEMPO 2714/2717 BKN025 FM280000 04011KT P6SM SCT050 BKN200 FM280500 07007KT P6SM FEW060 SCT200
KDFW 
19nm NE 
270520Z 2706/2812 03015KT P6SM FEW120 SCT250 FM271300 04012G22KT P6SM SCT025 BKN045 TEMPO 2714/2717 BKN025 FM280000 04011KT P6SM SCT050 BKN200 FM280500 07007KT P6SM FEW060 SCT200
NOTAMs
Click for the latest NOTAMs
NOTAMs are issued by the DoD/FAA and will open in a separate window not controlled by AirNav.

 

 
 

Would you like to see your business listed on this page?

 If your business provides an interesting product or service to pilots, flight crews, aircraft, or users of the Plaza Medical Center Heliport, you should consider listing it here.  To start the listing process, click on the button below
 
Add a business
 

Other Pages about Plaza Medical Center Heliport

Update a link
 
Copyright © AirNav, LLC. All rights reserved. Privacy Policy  Contact